Time;durP1;ratioP1;P1;durP2;ratioP2;P2;SDS_P1;SDS_P2;PMS_P1;PMS_P2;Temp;Humidity;BMP_temperature;BMP_pressure;BME280_temperature;BME280_humidity;BME280_pressure;Samples;Min_cycle;Max_cycle;Signal;HPM_P1;HPM_P2
2023/11/29 00:00:49;;;;;;;11.82;7.78;;;;;;;;;;2089234;28;20041;-58
2023/11/29 00:01:50;;;;;;;12.65;8.60;;;;;;;;;;2090004;28;20079;-59
2023/11/29 00:02:51;;;;;;;14.65;9.35;;;;;;;;;;2090091;28;20048;-59
2023/11/29 00:03:52;;;;;;;14.32;7.93;;;;;;;;;;2090403;28;20472;-58
2023/11/29 00:04:52;;;;;;;14.80;9.05;;;;;;;;;;2089953;28;20488;-59
2023/11/29 00:05:53;;;;;;;13.63;7.78;;;;;;;;;;2089715;28;20033;-59
2023/11/29 00:06:54;;;;;;;15.35;9.75;;;;;;;;;;2089978;28;20052;-59
2023/11/29 00:07:55;;;;;;;14.57;9.00;;;;;;;;;;2090134;28;20046;-59
2023/11/29 00:08:57;;;;;;;14.90;9.93;;;;;;;;;;2090272;28;20041;-59
2023/11/29 00:09:58;;;;;;;15.05;9.60;;;;;;;;;;2089996;28;20032;-59
2023/11/29 00:10:58;;;;;;;15.82;10.18;;;;;;;;;;2089611;28;20036;-58
2023/11/29 00:11:59;;;;;;;17.05;11.23;;;;;;;;;;2090208;28;20124;-58
2023/11/29 00:13:00;;;;;;;15.65;8.25;;;;;;;;;;2091508;28;20045;-59
2023/11/29 00:14:00;;;;;;;16.67;10.80;;;;;;;;;;2091788;28;20037;-59
2023/11/29 00:15:01;;;;;;;15.88;10.70;;;;;;;;;;2091338;28;20056;-60
2023/11/29 00:16:02;;;;;;;16.05;10.70;;;;;;;;;;2091396;28;20564;-60
2023/11/29 00:17:04;;;;;;;16.70;10.77;;;;;;;;;;2091625;28;20457;-59
2023/11/29 00:18:04;;;;;;;15.60;9.75;;;;;;;;;;2091577;28;20082;-59
2023/11/29 00:19:05;;;;;;;18.65;10.43;;;;;;;;;;2091728;28;20043;-59
2023/11/29 00:20:06;;;;;;;17.90;11.05;;;;;;;;;;2091171;28;20070;-58
2023/11/29 00:21:07;;;;;;;14.95;9.85;;;;;;;;;;2091260;28;20040;-59
2023/11/29 00:22:08;;;;;;;15.18;9.48;;;;;;;;;;2091574;28;20468;-59
2023/11/29 00:23:10;;;;;;;16.83;9.98;;;;;;;;;;2090766;28;20032;-59
2023/11/29 00:24:11;;;;;;;16.60;10.52;;;;;;;;;;2090709;28;20029;-59
2023/11/29 00:25:12;;;;;;;15.65;10.02;;;;;;;;;;2091737;28;20053;-59
2023/11/29 00:26:13;;;;;;;17.13;10.73;;;;;;;;;;2091641;28;20029;-59
2023/11/29 00:27:15;;;;;;;16.52;10.75;;;;;;;;;;2091651;28;20052;-60
2023/11/29 00:28:15;;;;;;;16.02;10.52;;;;;;;;;;2091308;28;20543;-59
2023/11/29 00:29:16;;;;;;;17.33;10.63;;;;;;;;;;2091286;28;20041;-59
2023/11/29 00:30:17;;;;;;;17.77;10.80;;;;;;;;;;2090646;28;20116;-60
2023/11/29 00:31:18;;;;;;;15.90;10.90;;;;;;;;;;2081531;28;20038;-60
2023/11/29 00:32:20;;;;;;;17.05;10.95;;;;;;;;;;2090393;28;20045;-60
2023/11/29 00:33:20;;;;;;;17.50;10.80;;;;;;;;;;2090293;28;20040;-59
2023/11/29 00:34:21;;;;;;;18.80;11.15;;;;;;;;;;2082294;28;20485;-59
2023/11/29 00:35:22;;;;;;;18.98;11.25;;;;;;;;;;2090259;28;20045;-59
2023/11/29 00:36:24;;;;;;;17.33;10.75;;;;;;;;;;2091032;28;20426;-60
2023/11/29 00:37:24;;;;;;;17.42;11.50;;;;;;;;;;2091403;28;20041;-59
2023/11/29 00:38:25;;;;;;;17.70;11.13;;;;;;;;;;2091219;28;20037;-59
2023/11/29 00:39:26;;;;;;;18.23;11.75;;;;;;;;;;2091479;28;20432;-59
2023/11/29 00:40:27;;;;;;;19.25;11.35;;;;;;;;;;2091606;28;20049;-59
2023/11/29 00:41:27;;;;;;;19.88;12.02;;;;;;;;;;2090534;28;20052;-59
2023/11/29 00:42:28;;;;;;;18.25;11.77;;;;;;;;;;2090468;28;20029;-59
2023/11/29 00:43:29;;;;;;;19.23;12.02;;;;;;;;;;2090374;28;20045;-59
2023/11/29 00:44:30;;;;;;;18.67;11.50;;;;;;;;;;2090369;28;20045;-59
2023/11/29 00:45:31;;;;;;;18.33;11.30;;;;;;;;;;2091371;28;20380;-59
2023/11/29 00:46:31;;;;;;;19.65;12.18;;;;;;;;;;2090631;28;20041;-60
2023/11/29 00:47:32;;;;;;;18.00;10.98;;;;;;;;;;2090019;28;20037;-60
2023/11/29 00:48:33;;;;;;;19.17;11.50;;;;;;;;;;2090939;28;20100;-60
2023/11/29 00:49:34;;;;;;;19.80;12.23;;;;;;;;;;2090310;28;20045;-59
2023/11/29 00:50:34;;;;;;;20.95;12.23;;;;;;;;;;2091047;28;20131;-58
2023/11/29 00:51:35;;;;;;;18.98;12.23;;;;;;;;;;2091166;28;20091;-59
2023/11/29 00:52:36;;;;;;;18.05;10.95;;;;;;;;;;2091049;28;20045;-59
2023/11/29 00:53:37;;;;;;;18.45;11.18;;;;;;;;;;2090825;28;20416;-59
2023/11/29 00:54:38;;;;;;;18.30;12.18;;;;;;;;;;2090781;28;20491;-59
2023/11/29 00:55:38;;;;;;;18.40;12.15;;;;;;;;;;2091182;28;20052;-60
2023/11/29 00:56:39;;;;;;;20.00;12.07;;;;;;;;;;2091078;28;20101;-60
2023/11/29 00:57:40;;;;;;;19.00;11.95;;;;;;;;;;2090959;28;20049;-59
2023/11/29 00:58:40;;;;;;;19.45;11.32;;;;;;;;;;2091063;28;20064;-59
2023/11/29 00:59:41;;;;;;;19.38;11.55;;;;;;;;;;2091085;28;20473;-59
2023/11/29 01:00:42;;;;;;;21.63;12.13;;;;;;;;;;2091265;28;20048;-59
2023/11/29 01:01:43;;;;;;;19.90;12.95;;;;;;;;;;2090988;28;20049;-59
2023/11/29 01:02:43;;;;;;;20.17;12.48;;;;;;;;;;2090961;28;20055;-59
2023/11/29 01:03:44;;;;;;;20.73;12.75;;;;;;;;;;2091000;28;20438;-59
2023/11/29 01:04:45;;;;;;;19.50;12.07;;;;;;;;;;2090995;28;20491;-59
2023/11/29 01:05:46;;;;;;;21.30;12.52;;;;;;;;;;2090387;28;20049;-60
2023/11/29 01:06:46;;;;;;;20.98;13.20;;;;;;;;;;2090708;28;20040;-60
2023/11/29 01:07:47;;;;;;;20.83;12.63;;;;;;;;;;2091196;28;20029;-59
2023/11/29 01:08:48;;;;;;;25.92;15.40;;;;;;;;;;2090967;28;20025;-59
2023/11/29 01:09:48;;;;;;;21.55;13.77;;;;;;;;;;2090306;28;20056;-60
2023/11/29 01:10:49;;;;;;;22.27;14.25;;;;;;;;;;2090362;28;20477;-59
2023/11/29 01:11:50;;;;;;;26.25;14.43;;;;;;;;;;2090416;28;20029;-59
2023/11/29 01:12:51;;;;;;;25.45;14.13;;;;;;;;;;2091302;28;20041;-61
2023/11/29 01:13:52;;;;;;;26.42;15.68;;;;;;;;;;2091241;28;20492;-59
2023/11/29 01:14:52;;;;;;;24.13;14.02;;;;;;;;;;2090917;28;20036;-59
2023/11/29 01:15:53;;;;;;;24.67;14.23;;;;;;;;;;2090579;28;20033;-59
2023/11/29 01:16:54;;;;;;;25.48;14.70;;;;;;;;;;2090250;28;20040;-59
2023/11/29 01:17:57;;;;;;;27.52;16.23;;;;;;;;;;2090370;28;20052;-59
2023/11/29 01:18:59;;;;;;;24.25;14.50;;;;;;;;;;2090319;28;20059;-59
2023/11/29 01:20:00;;;;;;;25.67;14.75;;;;;;;;;;2090482;28;20040;-59
2023/11/29 01:21:00;;;;;;;22.83;13.45;;;;;;;;;;2090558;28;20040;-60
2023/11/29 01:22:01;;;;;;;25.80;14.80;;;;;;;;;;2089935;28;20374;-60
2023/11/29 01:23:02;;;;;;;24.50;14.80;;;;;;;;;;2090802;28;20136;-59
2023/11/29 01:24:04;;;;;;;24.77;15.30;;;;;;;;;;2090972;28;20033;-59
2023/11/29 01:25:05;;;;;;;25.23;15.15;;;;;;;;;;2091063;28;20461;-60
2023/11/29 01:26:06;;;;;;;26.02;15.38;;;;;;;;;;2091236;28;20048;-59
2023/11/29 01:27:07;;;;;;;26.70;15.40;;;;;;;;;;2091042;28;20086;-61
2023/11/29 01:28:10;;;;;;;27.73;15.50;;;;;;;;;;2090796;28;20037;-60
2023/11/29 01:29:11;;;;;;;30.33;17.52;;;;;;;;;;2089511;28;20036;-60
2023/11/29 01:30:12;;;;;;;26.38;14.80;;;;;;;;;;2081709;28;20041;-59
2023/11/29 01:31:13;;;;;;;28.88;15.75;;;;;;;;;;2089886;28;20052;-61
2023/11/29 01:32:14;;;;;;;27.73;16.35;;;;;;;;;;2090645;28;20033;-59
2023/11/29 01:33:14;;;;;;;28.65;16.15;;;;;;;;;;2090344;28;20044;-59
2023/11/29 01:34:16;;;;;;;35.40;18.33;;;;;;;;;;2081953;28;20033;-59
2023/11/29 01:35:17;;;;;;;28.30;16.05;;;;;;;;;;2089956;28;20040;-61
2023/11/29 01:36:18;;;;;;;31.63;17.00;;;;;;;;;;2090141;28;20528;-59
2023/11/29 01:37:19;;;;;;;29.52;17.10;;;;;;;;;;2090451;28;20087;-60
2023/11/29 01:38:19;;;;;;;29.50;16.48;;;;;;;;;;2090654;28;20194;-59
2023/11/29 01:39:20;;;;;;;28.20;16.00;;;;;;;;;;2090391;28;20033;-59
2023/11/29 01:40:21;;;;;;;30.30;17.23;;;;;;;;;;2090070;28;20489;-60
2023/11/29 01:41:22;;;;;;;30.95;17.08;;;;;;;;;;2090291;28;20024;-59
2023/11/29 01:42:22;;;;;;;31.98;18.10;;;;;;;;;;2090437;28;20504;-59
2023/11/29 01:43:24;;;;;;;30.80;16.83;;;;;;;;;;2091039;28;20033;-59
2023/11/29 01:44:24;;;;;;;31.38;18.20;;;;;;;;;;2090049;28;20374;-59
2023/11/29 01:45:25;;;;;;;29.33;17.52;;;;;;;;;;2090349;28;20040;-60
2023/11/29 01:46:28;;;;;;;31.52;17.23;;;;;;;;;;2090798;28;20033;-60
2023/11/29 01:47:33;;;;;;;29.40;16.52;;;;;;;;;;2090923;28;20055;-59
2023/11/29 01:48:34;;;;;;;33.35;17.70;;;;;;;;;;2091023;28;20036;-61
2023/11/29 01:49:35;;;;;;;29.60;17.27;;;;;;;;;;2090977;28;20453;-62
2023/11/29 01:50:35;;;;;;;32.03;18.83;;;;;;;;;;2090028;28;20076;-61
2023/11/29 01:51:36;;;;;;;30.23;16.50;;;;;;;;;;2090308;28;20036;-59
2023/11/29 01:52:37;;;;;;;30.05;17.55;;;;;;;;;;2090237;28;20032;-60
2023/11/29 01:53:38;;;;;;;35.08;16.65;;;;;;;;;;2090102;28;20045;-60
2023/11/29 01:54:38;;;;;;;31.65;17.95;;;;;;;;;;2090654;28;20037;-60
2023/11/29 01:55:40;;;;;;;31.40;17.35;;;;;;;;;;2090825;28;20033;-60
2023/11/29 01:56:41;;;;;;;30.40;17.02;;;;;;;;;;2081452;28;20042;-59
2023/11/29 01:57:42;;;;;;;31.63;18.08;;;;;;;;;;2065987;28;20042;-60
2023/11/29 01:58:42;;;;;;;29.60;17.02;;;;;;;;;;2082084;28;20044;-59
2023/11/29 01:59:43;;;;;;;28.48;17.17;;;;;;;;;;2089963;28;20091;-59
2023/11/29 02:00:44;;;;;;;29.30;15.73;;;;;;;;;;2081387;28;20052;-61
2023/11/29 02:01:45;;;;;;;30.83;18.25;;;;;;;;;;2081268;28;20042;-59
2023/11/29 02:02:45;;;;;;;29.95;16.75;;;;;;;;;;2089927;28;20045;-60
2023/11/29 02:03:46;;;;;;;30.92;18.40;;;;;;;;;;2090866;28;20424;-59
2023/11/29 02:04:47;;;;;;;32.67;18.80;;;;;;;;;;2090529;28;20049;-59
2023/11/29 02:05:48;;;;;;;30.13;18.08;;;;;;;;;;2090225;28;20056;-60
2023/11/29 02:06:48;;;;;;;27.08;15.50;;;;;;;;;;2090228;28;20036;-58
2023/11/29 02:07:49;;;;;;;30.20;17.58;;;;;;;;;;2105913;28;20044;-59
2023/11/29 02:08:50;;;;;;;31.88;18.30;;;;;;;;;;2097922;28;20056;-59
2023/11/29 02:09:50;;;;;;;29.17;16.80;;;;;;;;;;2098042;28;20492;-60
2023/11/29 02:10:51;;;;;;;30.63;17.00;;;;;;;;;;2097281;28;20043;-60
2023/11/29 02:11:52;;;;;;;31.40;17.98;;;;;;;;;;2089236;28;20060;-59
2023/11/29 02:12:53;;;;;;;30.00;17.90;;;;;;;;;;2090639;28;20052;-59
2023/11/29 02:13:53;;;;;;;31.05;18.80;;;;;;;;;;2090611;28;20036;-60
2023/11/29 02:14:54;;;;;;;29.85;17.10;;;;;;;;;;2089916;28;20033;-60
2023/11/29 02:15:55;;;;;;;33.42;17.40;;;;;;;;;;2089629;28;20417;-60
2023/11/29 02:17:00;;;;;;;31.10;17.80;;;;;;;;;;2097764;28;20044;-61
2023/11/29 02:18:00;;;;;;;27.40;15.85;;;;;;;;;;2090374;28;20033;-59
2023/11/29 02:19:02;;;;;;;30.58;16.95;;;;;;;;;;2090534;28;20357;-60
2023/11/29 02:20:03;;;;;;;29.70;17.67;;;;;;;;;;2089784;28;20041;-59
2023/11/29 02:21:04;;;;;;;31.77;17.90;;;;;;;;;;2089836;28;20029;-59
2023/11/29 02:22:05;;;;;;;32.70;18.88;;;;;;;;;;2089630;28;20477;-59
2023/11/29 02:23:12;;;;;;;28.75;17.17;;;;;;;;;;2081562;28;20512;-60
2023/11/29 02:24:17;;;;;;;29.65;17.17;;;;;;;;;;2090113;28;20036;-62
2023/11/29 02:25:18;;;;;;;32.33;17.83;;;;;;;;;;2081745;28;20037;-62
2023/11/29 02:26:19;;;;;;;28.92;16.17;;;;;;;;;;2081836;28;20509;-61
2023/11/29 02:27:20;;;;;;;30.75;16.80;;;;;;;;;;2089977;28;20472;-61
2023/11/29 02:28:21;;;;;;;31.08;16.80;;;;;;;;;;2081842;28;20037;-61
2023/11/29 02:29:22;;;;;;;29.73;16.67;;;;;;;;;;2089711;28;20519;-62
2023/11/29 02:30:22;;;;;;;31.60;18.15;;;;;;;;;;2089899;28;20040;-62
2023/11/29 02:31:23;;;;;;;30.88;18.20;;;;;;;;;;2089318;28;20028;-61
2023/11/29 02:32:24;;;;;;;30.25;17.17;;;;;;;;;;2090348;28;20037;-61
2023/11/29 02:33:24;;;;;;;28.70;16.90;;;;;;;;;;2090155;28;20056;-61
2023/11/29 02:34:25;;;;;;;28.38;16.40;;;;;;;;;;2089992;28;20049;-58
2023/11/29 02:35:26;;;;;;;28.45;16.67;;;;;;;;;;2090460;28;20354;-59
2023/11/29 02:36:27;;;;;;;29.17;17.40;;;;;;;;;;2090266;28;20048;-59
2023/11/29 02:37:27;;;;;;;28.60;16.40;;;;;;;;;;2090432;28;20045;-61
2023/11/29 02:38:28;;;;;;;28.65;16.95;;;;;;;;;;2089221;28;20075;-59
2023/11/29 02:39:29;;;;;;;28.50;16.45;;;;;;;;;;2089702;28;20041;-59
2023/11/29 02:40:30;;;;;;;24.80;14.48;;;;;;;;;;2090478;28;20045;-60
2023/11/29 02:41:30;;;;;;;27.48;16.20;;;;;;;;;;2090306;28;20049;-60
2023/11/29 02:42:31;;;;;;;32.38;17.38;;;;;;;;;;2090263;28;20041;-59
2023/11/29 02:43:32;;;;;;;28.48;16.70;;;;;;;;;;2090204;28;20059;-57
2023/11/29 02:44:33;;;;;;;28.95;16.88;;;;;;;;;;2090343;28;20480;-58
2023/11/29 02:45:33;;;;;;;28.50;16.52;;;;;;;;;;2090181;28;20045;-58
2023/11/29 02:46:34;;;;;;;27.50;16.52;;;;;;;;;;2090431;28;20415;-59
2023/11/29 02:47:35;;;;;;;29.83;16.52;;;;;;;;;;2090651;28;20044;-58
2023/11/29 02:48:35;;;;;;;29.30;17.30;;;;;;;;;;2089806;28;20167;-58
2023/11/29 02:49:37;;;;;;;29.33;16.80;;;;;;;;;;2089617;28;20045;-58
2023/11/29 02:50:37;;;;;;;26.95;14.50;;;;;;;;;;2090277;28;20036;-59
2023/11/29 02:51:38;;;;;;;26.15;15.10;;;;;;;;;;2089668;28;20455;-59
2023/11/29 02:52:39;;;;;;;29.20;17.40;;;;;;;;;;2090420;28;20512;-58
2023/11/29 02:53:40;;;;;;;28.83;15.85;;;;;;;;;;2089836;28;20489;-59
2023/11/29 02:54:40;;;;;;;27.77;16.50;;;;;;;;;;2090033;28;20080;-60
2023/11/29 02:55:41;;;;;;;30.63;18.08;;;;;;;;;;2089860;28;20045;-59
2023/11/29 02:56:42;;;;;;;27.17;16.05;;;;;;;;;;2090598;28;20049;-59
2023/11/29 02:57:42;;;;;;;29.90;16.42;;;;;;;;;;2091393;28;20060;-59
2023/11/29 02:58:43;;;;;;;24.33;13.55;;;;;;;;;;2090243;28;20086;-59
2023/11/29 02:59:45;;;;;;;27.75;13.52;;;;;;;;;;2090036;28;20068;-59
2023/11/29 03:00:46;;;;;;;29.27;16.80;;;;;;;;;;2089216;28;20045;-59
2023/11/29 03:01:47;;;;;;;27.40;14.23;;;;;;;;;;2089439;28;20049;-62
2023/11/29 03:02:47;;;;;;;28.58;16.55;;;;;;;;;;2090129;28;20036;-59
2023/11/29 03:03:48;;;;;;;31.52;17.15;;;;;;;;;;2089715;28;20128;-59
2023/11/29 03:04:49;;;;;;;27.63;15.35;;;;;;;;;;2089382;28;20094;-59
2023/11/29 03:05:50;;;;;;;26.65;15.00;;;;;;;;;;2089905;28;20124;-59
2023/11/29 03:06:51;;;;;;;29.80;15.90;;;;;;;;;;2090177;28;20060;-60
2023/11/29 03:07:51;;;;;;;27.05;16.38;;;;;;;;;;2090102;28;20086;-59
2023/11/29 03:08:52;;;;;;;28.52;15.55;;;;;;;;;;2090410;28;20068;-59
2023/11/29 03:09:53;;;;;;;31.23;17.90;;;;;;;;;;2090431;28;20040;-59
2023/11/29 03:10:54;;;;;;;29.05;17.23;;;;;;;;;;2090148;28;20044;-60
2023/11/29 03:11:54;;;;;;;25.50;15.05;;;;;;;;;;2090266;28;20464;-60
2023/11/29 03:12:55;;;;;;;26.42;14.48;;;;;;;;;;2089844;28;20461;-59
2023/11/29 03:13:56;;;;;;;28.83;15.88;;;;;;;;;;2090090;28;20045;-59
2023/11/29 03:14:56;;;;;;;29.70;16.77;;;;;;;;;;2089901;28;20037;-59
2023/11/29 03:16:02;;;;;;;28.98;16.45;;;;;;;;;;2089374;28;20040;-61
2023/11/29 03:17:03;;;;;;;27.40;16.00;;;;;;;;;;2089547;28;20017;-61
2023/11/29 03:18:03;;;;;;;29.00;16.27;;;;;;;;;;2090087;28;20064;-59
2023/11/29 03:19:04;;;;;;;27.65;16.15;;;;;;;;;;2089910;28;20536;-60
2023/11/29 03:20:08;;;;;;;26.08;12.85;;;;;;;;;;2090324;28;20401;-59
2023/11/29 03:21:09;;;;;;;29.73;16.98;;;;;;;;;;2090175;28;20044;-60
2023/11/29 03:22:09;;;;;;;28.13;14.90;;;;;;;;;;2090529;28;20056;-58
2023/11/29 03:23:11;;;;;;;27.73;16.48;;;;;;;;;;2089993;28;20416;-59
2023/11/29 03:24:11;;;;;;;27.88;14.20;;;;;;;;;;2090205;28;20048;-59
2023/11/29 03:25:12;;;;;;;24.95;14.82;;;;;;;;;;2089692;28;20461;-59
2023/11/29 03:26:13;;;;;;;25.08;13.55;;;;;;;;;;2089325;28;20071;-59
2023/11/29 03:27:16;;;;;;;25.88;15.25;;;;;;;;;;2089792;28;20037;-58
2023/11/29 03:28:17;;;;;;;25.10;13.82;;;;;;;;;;2089105;28;20033;-60
2023/11/29 03:29:18;;;;;;;24.45;14.35;;;;;;;;;;2089204;28;20049;-59
2023/11/29 03:30:18;;;;;;;24.88;13.85;;;;;;;;;;2090657;28;20102;-58
2023/11/29 03:31:19;;;;;;;26.33;15.18;;;;;;;;;;2088972;28;20041;-59
2023/11/29 03:32:20;;;;;;;25.05;14.02;;;;;;;;;;2090127;28;20064;-58
2023/11/29 03:33:20;;;;;;;27.05;16.30;;;;;;;;;;2090078;28;20029;-59
2023/11/29 03:34:21;;;;;;;28.38;15.45;;;;;;;;;;2089777;28;20049;-59
2023/11/29 03:35:22;;;;;;;24.60;14.55;;;;;;;;;;2089807;28;20036;-59
2023/11/29 03:36:23;;;;;;;28.95;16.48;;;;;;;;;;2089537;28;20029;-60
2023/11/29 03:37:25;;;;;;;24.48;13.57;;;;;;;;;;2089434;28;20037;-60
2023/11/29 03:38:25;;;;;;;27.25;14.20;;;;;;;;;;2089476;28;20373;-60
2023/11/29 03:39:26;;;;;;;27.13;13.18;;;;;;;;;;2090120;28;20070;-59
2023/11/29 03:40:27;;;;;;;22.98;12.75;;;;;;;;;;2090062;28;20052;-59
2023/11/29 03:41:27;;;;;;;26.52;15.00;;;;;;;;;;2089739;28;20076;-58
2023/11/29 03:42:28;;;;;;;25.02;14.75;;;;;;;;;;2089506;28;20029;-60
2023/11/29 03:43:29;;;;;;;25.98;14.00;;;;;;;;;;2089711;28;20056;-60
2023/11/29 03:44:30;;;;;;;27.30;15.13;;;;;;;;;;2090357;28;20040;-59
2023/11/29 03:45:30;;;;;;;26.17;14.25;;;;;;;;;;2090098;28;20049;-59
2023/11/29 03:46:31;;;;;;;25.30;14.30;;;;;;;;;;2091484;28;20041;-60
2023/11/29 03:47:32;;;;;;;27.45;15.00;;;;;;;;;;2091629;28;20029;-59
2023/11/29 03:48:32;;;;;;;25.55;13.88;;;;;;;;;;2091155;28;20033;-60
2023/11/29 03:49:33;;;;;;;24.98;14.57;;;;;;;;;;2090875;28;20044;-60
2023/11/29 03:50:34;;;;;;;27.90;13.88;;;;;;;;;;2082781;28;20056;-60
2023/11/29 03:51:35;;;;;;;25.88;12.88;;;;;;;;;;2090742;28;20396;-59
2023/11/29 03:52:35;;;;;;;24.27;14.13;;;;;;;;;;2091980;28;20453;-60
2023/11/29 03:53:36;;;;;;;25.35;13.23;;;;;;;;;;2091306;28;20036;-59
2023/11/29 03:54:37;;;;;;;24.02;14.20;;;;;;;;;;2090423;28;20045;-59
2023/11/29 03:55:39;;;;;;;22.92;14.32;;;;;;;;;;2091639;28;20037;-60
2023/11/29 03:56:39;;;;;;;25.55;14.20;;;;;;;;;;2091825;28;20098;-60
2023/11/29 03:57:41;;;;;;;24.63;12.88;;;;;;;;;;2091517;28;20040;-60
2023/11/29 03:58:42;;;;;;;22.77;13.32;;;;;;;;;;2091558;28;20037;-60
2023/11/29 03:59:43;;;;;;;20.08;11.07;;;;;;;;;;2091634;28;20045;-60
2023/11/29 04:00:44;;;;;;;20.05;11.77;;;;;;;;;;2091610;28;20036;-59
2023/11/29 04:01:45;;;;;;;20.83;11.40;;;;;;;;;;2090423;28;20424;-59
2023/11/29 04:02:46;;;;;;;20.83;11.57;;;;;;;;;;2091034;28;20481;-59
2023/11/29 04:03:46;;;;;;;21.95;11.85;;;;;;;;;;2091100;28;20077;-60
2023/11/29 04:04:47;;;;;;;19.90;10.40;;;;;;;;;;2091139;28;20033;-60
2023/11/29 04:05:48;;;;;;;19.90;11.15;;;;;;;;;;2090570;28;20053;-59
2023/11/29 04:06:49;;;;;;;19.50;10.88;;;;;;;;;;2090947;28;20029;-59
2023/11/29 04:07:50;;;;;;;19.70;11.43;;;;;;;;;;2090895;28;20036;-59
2023/11/29 04:08:52;;;;;;;20.17;10.75;;;;;;;;;;2090843;28;20037;-59
2023/11/29 04:09:53;;;;;;;15.80;8.25;;;;;;;;;;2090987;28;20033;-59
2023/11/29 04:10:53;;;;;;;11.27;6.35;;;;;;;;;;2090433;28;20063;-59
2023/11/29 04:11:54;;;;;;;18.20;10.52;;;;;;;;;;2082910;28;20125;-59
2023/11/29 04:12:55;;;;;;;15.60;8.27;;;;;;;;;;2082869;28;20037;-59
2023/11/29 04:13:56;;;;;;;16.17;9.10;;;;;;;;;;2082380;28;20501;-59
2023/11/29 04:14:57;;;;;;;16.15;9.40;;;;;;;;;;2090828;28;20393;-60
2023/11/29 04:15:57;;;;;;;14.52;6.82;;;;;;;;;;2091390;28;20503;-59
2023/11/29 04:16:58;;;;;;;13.13;7.90;;;;;;;;;;2091478;28;20037;-59
2023/11/29 04:18:00;;;;;;;16.13;9.02;;;;;;;;;;2090731;28;20037;-58
2023/11/29 04:19:01;;;;;;;12.98;7.35;;;;;;;;;;2090758;28;20037;-59
2023/11/29 04:20:01;;;;;;;13.23;7.68;;;;;;;;;;2082752;28;20486;-59
2023/11/29 04:21:03;;;;;;;13.20;7.55;;;;;;;;;;2082322;28;20072;-59
2023/11/29 04:22:04;;;;;;;17.90;8.68;;;;;;;;;;2082317;28;20041;-58
2023/11/29 04:23:05;;;;;;;17.00;9.00;;;;;;;;;;2082597;28;20461;-59
2023/11/29 04:24:06;;;;;;;15.38;8.18;;;;;;;;;;2090693;28;20417;-59
2023/11/29 04:25:07;;;;;;;18.27;9.48;;;;;;;;;;2091364;28;20049;-60
2023/11/29 04:26:08;;;;;;;12.55;7.15;;;;;;;;;;2090714;28;20198;-59
2023/11/29 04:27:08;;;;;;;15.45;8.10;;;;;;;;;;2090751;28;20045;-59
2023/11/29 04:28:10;;;;;;;16.77;7.82;;;;;;;;;;2107555;28;20040;-60
2023/11/29 04:29:10;;;;;;;13.70;7.72;;;;;;;;;;2099072;28;20036;-60
2023/11/29 04:30:11;;;;;;;12.18;6.63;;;;;;;;;;2073998;28;20046;-60
2023/11/29 04:31:13;;;;;;;16.77;9.70;;;;;;;;;;2090468;28;20091;-60
2023/11/29 04:32:15;;;;;;;15.35;6.85;;;;;;;;;;2099140;28;20051;-59
2023/11/29 04:33:16;;;;;;;14.18;7.95;;;;;;;;;;2090654;28;20492;-60
2023/11/29 04:34:17;;;;;;;15.98;8.65;;;;;;;;;;2090954;28;20033;-59
2023/11/29 04:35:18;;;;;;;15.13;8.13;;;;;;;;;;2090949;28;20520;-59
2023/11/29 04:36:19;;;;;;;16.40;8.90;;;;;;;;;;2091076;28;20045;-60
2023/11/29 04:37:19;;;;;;;11.77;6.63;;;;;;;;;;2091526;28;20083;-60
2023/11/29 04:38:20;;;;;;;11.48;6.00;;;;;;;;;;2090431;28;20499;-60
2023/11/29 04:39:21;;;;;;;13.88;7.82;;;;;;;;;;2090724;28;20480;-60
2023/11/29 04:40:22;;;;;;;15.10;7.90;;;;;;;;;;2099193;28;20531;-59
2023/11/29 04:41:23;;;;;;;15.60;8.93;;;;;;;;;;2090934;28;20045;-60
2023/11/29 04:42:23;;;;;;;16.05;8.13;;;;;;;;;;2090639;28;20052;-60
2023/11/29 04:43:24;;;;;;;15.70;8.68;;;;;;;;;;2090276;28;20049;-60
2023/11/29 04:44:25;;;;;;;10.18;5.53;;;;;;;;;;2090190;28;20119;-60
2023/11/29 04:45:26;;;;;;;14.55;8.18;;;;;;;;;;2082640;28;20041;-59
2023/11/29 04:46:28;;;;;;;16.17;7.65;;;;;;;;;;2090834;28;20075;-60
2023/11/29 04:47:29;;;;;;;15.98;8.27;;;;;;;;;;2091162;28;20071;-60
2023/11/29 04:48:30;;;;;;;12.45;6.20;;;;;;;;;;2090714;28;20477;-60
2023/11/29 04:49:30;;;;;;;11.15;4.88;;;;;;;;;;2090579;28;20496;-60
2023/11/29 04:50:31;;;;;;;10.95;6.03;;;;;;;;;;2091952;28;20048;-60
2023/11/29 04:51:32;;;;;;;14.90;7.90;;;;;;;;;;2091148;28;20388;-60
2023/11/29 04:52:33;;;;;;;14.73;6.70;;;;;;;;;;2091399;28;20488;-60
2023/11/29 04:53:35;;;;;;;14.88;6.57;;;;;;;;;;2091205;28;20064;-60
2023/11/29 04:54:36;;;;;;;20.25;9.27;;;;;;;;;;2091431;28;20469;-59
2023/11/29 04:55:36;;;;;;;16.75;9.45;;;;;;;;;;2091139;28;20052;-58
2023/11/29 04:56:37;;;;;;;17.75;9.57;;;;;;;;;;2091529;28;20052;-60
2023/11/29 04:57:38;;;;;;;11.70;5.28;;;;;;;;;;2090893;28;20056;-60
2023/11/29 04:58:41;;;;;;;14.10;7.15;;;;;;;;;;2091748;28;20072;-60
2023/11/29 04:59:42;;;;;;;15.95;8.43;;;;;;;;;;2091198;28;20404;-60
2023/11/29 05:00:43;;;;;;;16.88;8.77;;;;;;;;;;2091156;28;20048;-60
2023/11/29 05:01:43;;;;;;;17.13;9.98;;;;;;;;;;2089938;28;20045;-59
2023/11/29 05:02:44;;;;;;;17.58;8.63;;;;;;;;;;2090309;28;20041;-60
2023/11/29 05:03:45;;;;;;;16.48;8.65;;;;;;;;;;2090962;28;20370;-59
2023/11/29 05:04:46;;;;;;;17.20;9.02;;;;;;;;;;2091029;28;20477;-61
2023/11/29 05:05:47;;;;;;;15.35;7.53;;;;;;;;;;2090966;28;20037;-60
2023/11/29 05:06:47;;;;;;;13.60;7.15;;;;;;;;;;2090720;28;20496;-60
2023/11/29 05:07:48;;;;;;;17.25;8.57;;;;;;;;;;2091396;28;20044;-60
2023/11/29 05:08:49;;;;;;;14.77;8.57;;;;;;;;;;2091107;28;20040;-60
2023/11/29 05:09:50;;;;;;;16.67;8.70;;;;;;;;;;2090997;28;20041;-60
2023/11/29 05:10:51;;;;;;;17.15;9.52;;;;;;;;;;2091277;28;20538;-59
2023/11/29 05:11:51;;;;;;;11.75;6.03;;;;;;;;;;2091153;28;20365;-60
2023/11/29 05:12:53;;;;;;;17.40;7.72;;;;;;;;;;2090926;28;20037;-61
2023/11/29 05:13:54;;;;;;;17.55;8.35;;;;;;;;;;2090988;28;20029;-62
2023/11/29 05:14:54;;;;;;;12.73;5.63;;;;;;;;;;2091098;28;20017;-60
2023/11/29 05:15:55;;;;;;;17.75;8.65;;;;;;;;;;2091013;28;20041;-60
2023/11/29 05:16:56;;;;;;;15.93;8.38;;;;;;;;;;2091039;28;20037;-60
2023/11/29 05:17:56;;;;;;;12.52;6.70;;;;;;;;;;2090937;28;20056;-58
2023/11/29 05:18:57;;;;;;;16.27;8.77;;;;;;;;;;2090937;28;20029;-59
2023/11/29 05:19:58;;;;;;;14.98;8.43;;;;;;;;;;2090967;28;20052;-59
2023/11/29 05:20:59;;;;;;;15.15;6.55;;;;;;;;;;2091064;28;20029;-59
2023/11/29 05:21:59;;;;;;;16.65;8.43;;;;;;;;;;2090392;28;20050;-60
2023/11/29 05:23:00;;;;;;;13.55;6.90;;;;;;;;;;2090091;28;20424;-61
2023/11/29 05:24:01;;;;;;;15.02;8.25;;;;;;;;;;2091098;28;20124;-59
2023/11/29 05:25:02;;;;;;;11.98;6.28;;;;;;;;;;2090834;28;20478;-60
2023/11/29 05:26:02;;;;;;;14.35;8.00;;;;;;;;;;2090881;28;20068;-60
2023/11/29 05:27:03;;;;;;;12.65;7.07;;;;;;;;;;2090837;28;20033;-60
2023/11/29 05:28:05;;;;;;;12.77;6.32;;;;;;;;;;2090536;28;20033;-59
2023/11/29 05:29:06;;;;;;;13.75;7.43;;;;;;;;;;2091047;28;20029;-60
2023/11/29 05:30:10;;;;;;;11.93;6.22;;;;;;;;;;2090873;28;20025;-59
2023/11/29 05:31:10;;;;;;;11.93;5.90;;;;;;;;;;2090469;28;20037;-61
2023/11/29 05:32:12;;;;;;;11.85;6.05;;;;;;;;;;2091003;28;20056;-60
2023/11/29 05:33:13;;;;;;;14.15;6.88;;;;;;;;;;2090799;28;20033;-59
2023/11/29 05:34:14;;;;;;;13.80;7.72;;;;;;;;;;2090771;28;20037;-60
2023/11/29 05:35:14;;;;;;;13.43;8.07;;;;;;;;;;2090915;28;20079;-59
2023/11/29 05:36:15;;;;;;;13.57;7.18;;;;;;;;;;2091048;28;20035;-59
2023/11/29 05:37:16;;;;;;;14.20;7.65;;;;;;;;;;2090982;28;20029;-59
2023/11/29 05:38:17;;;;;;;14.85;7.30;;;;;;;;;;2090766;28;20391;-60
2023/11/29 05:39:19;;;;;;;11.70;6.63;;;;;;;;;;2090864;28;20029;-60
2023/11/29 05:40:20;;;;;;;11.98;5.97;;;;;;;;;;2090851;28;20051;-60
2023/11/29 05:41:21;;;;;;;11.10;4.97;;;;;;;;;;2090829;28;20476;-60
2023/11/29 05:42:22;;;;;;;13.63;7.20;;;;;;;;;;2090831;28;20032;-60
2023/11/29 05:43:23;;;;;;;11.02;5.68;;;;;;;;;;2090743;28;20064;-60
2023/11/29 05:44:23;;;;;;;13.52;7.13;;;;;;;;;;2090575;28;20105;-59
2023/11/29 05:45:24;;;;;;;13.80;7.47;;;;;;;;;;2090733;28;20048;-59
2023/11/29 05:46:27;;;;;;;14.02;7.32;;;;;;;;;;2090937;28;20037;-60
2023/11/29 05:47:29;;;;;;;11.50;7.18;;;;;;;;;;2090681;28;20233;-59
2023/11/29 05:48:29;;;;;;;13.57;7.68;;;;;;;;;;2090695;28;20037;-60
2023/11/29 05:49:30;;;;;;;12.70;7.00;;;;;;;;;;2091029;28;20017;-59
2023/11/29 05:50:31;;;;;;;16.00;8.35;;;;;;;;;;2090512;28;20048;-59
2023/11/29 05:51:32;;;;;;;12.25;6.35;;;;;;;;;;2090714;28;20053;-60
2023/11/29 05:52:32;;;;;;;15.23;8.70;;;;;;;;;;2090545;28;20036;-59
2023/11/29 05:53:33;;;;;;;10.77;5.07;;;;;;;;;;2090787;28;20371;-59
2023/11/29 05:54:34;;;;;;;14.85;6.85;;;;;;;;;;2090475;28;20057;-60
2023/11/29 05:55:35;;;;;;;15.18;6.78;;;;;;;;;;2091023;28;20044;-60
2023/11/29 05:56:35;;;;;;;17.15;8.30;;;;;;;;;;2090681;28;20503;-59